Time;durP1;ratioP1;P1;durP2;ratioP2;P2;SDS_P1;SDS_P2;PMS_P1;PMS_P2;Temp;Humidity;BMP_temperature;BMP_pressure;BME280_temperature;BME280_humidity;BME280_pressure;Samples;Min_cycle;Max_cycle;Signal;HPM_P1;HPM_P2
2021/11/29 00:02:19;;;;;;;11.13;3.10;;;21.10;81.80;;;;;;5075311;28;20424;-56
2021/11/29 00:04:47;;;;;;;8.77;2.80;;;21.20;81.30;;;;;;5074312;28;20078;-58
2021/11/29 00:07:14;;;;;;;7.85;2.55;;;21.20;80.00;;;;;;5074075;28;20021;-60
2021/11/29 00:09:42;;;;;;;8.60;2.63;;;21.30;81.50;;;;;;5075137;28;20454;-60
2021/11/29 00:12:10;;;;;;;9.52;2.65;;;21.30;80.80;;;;;;5075292;28;20379;-55
2021/11/29 00:14:37;;;;;;;12.65;3.15;;;21.30;80.50;;;;;;5075604;28;20020;-57
2021/11/29 00:17:05;;;;;;;10.00;3.20;;;21.30;80.50;;;;;;5074042;28;20031;-52
2021/11/29 00:19:32;;;;;;;7.13;2.55;;;21.30;78.90;;;;;;5074520;28;20472;-59
2021/11/29 00:22:00;;;;;;;8.43;3.00;;;21.40;81.20;;;;;;5075208;28;20036;-58
2021/11/29 00:24:27;;;;;;;7.63;2.95;;;21.40;78.90;;;;;;5075330;28;20103;-56
2021/11/29 00:26:55;;;;;;;15.95;4.07;;;21.40;78.30;;;;;;5075373;28;20047;-57
2021/11/29 00:29:22;;;;;;;22.50;4.40;;;21.20;69.90;;;;;;5066595;28;20124;-60
2021/11/29 00:31:50;;;;;;;18.52;3.75;;;21.20;70.80;;;;;;5068317;28;20032;-58
2021/11/29 00:34:17;;;;;;;10.00;2.97;;;21.00;72.60;;;;;;5071969;28;20428;-54
2021/11/29 00:36:46;;;;;;;16.20;4.03;;;21.10;79.90;;;;;;5072800;28;20059;-54
2021/11/29 00:39:16;;;;;;;18.63;7.03;;;21.30;72.20;;;;;;5072383;28;20103;-59
2021/11/29 00:41:44;;;;;;;8.70;3.03;;;21.70;72.30;;;;;;5069735;28;20028;-56
2021/11/29 00:44:11;;;;;;;11.02;3.05;;;21.80;71.90;;;;;;5070388;28;20629;-58
2021/11/29 00:46:42;;;;;;;11.80;3.10;;;21.80;74.80;;;;;;5072427;28;20028;-56
2021/11/29 00:49:10;;;;;;;14.70;3.63;;;21.70;70.90;;;;;;5071088;28;20044;-53
2021/11/29 00:51:37;;;;;;;10.93;2.83;;;21.50;70.70;;;;;;5070004;28;20017;-55
2021/11/29 00:54:05;;;;;;;17.83;3.60;;;21.40;72.90;;;;;;5069167;28;20348;-60
2021/11/29 00:56:34;;;;;;;14.68;3.75;;;21.40;77.00;;;;;;5071901;28;20032;-55
2021/11/29 00:59:02;;;;;;;16.98;3.70;;;21.50;78.80;;;;;;5071529;28;20111;-55
2021/11/29 01:01:30;;;;;;;24.88;4.68;;;21.60;74.50;;;;;;5071761;28;20040;-57
2021/11/29 01:03:57;;;;;;;22.17;4.65;;;21.70;70.40;;;;;;5067825;28;20040;-55
2021/11/29 01:06:26;;;;;;;16.10;3.70;;;21.70;68.70;;;;;;5071782;28;20121;-57
2021/11/29 01:08:54;;;;;;;13.75;3.40;;;21.80;75.90;;;;;;5071418;28;20412;-59
2021/11/29 01:11:22;;;;;;;12.80;3.42;;;21.80;77.50;;;;;;5071651;28;20017;-57
2021/11/29 01:13:49;;;;;;;15.68;4.75;;;21.70;72.30;;;;;;5068167;28;20028;-56
2021/11/29 01:16:21;;;;;;;16.00;3.83;;;21.70;74.20;;;;;;5070821;28;20025;-57
2021/11/29 01:18:48;;;;;;;15.23;4.43;;;21.80;74.00;;;;;;5071379;28;20111;-58
2021/11/29 01:21:17;;;;;;;19.50;4.07;;;21.90;72.00;;;;;;5071106;28;20025;-56
2021/11/29 01:23:45;;;;;;;15.65;4.78;;;22.20;68.40;;;;;;5067345;28;20032;-60
2021/11/29 01:26:13;;;;;;;21.88;4.53;;;22.20;69.70;;;;;;5071658;28;20032;-57
2021/11/29 01:28:41;;;;;;;17.67;4.53;;;22.30;72.20;;;;;;5071896;28;20033;-56
2021/11/29 01:31:09;;;;;;;14.43;4.15;;;22.30;72.80;;;;;;5070307;28;20490;-58
2021/11/29 01:33:39;;;;;;;19.88;5.68;;;22.50;67.80;;;;;;5066161;28;20037;-56
2021/11/29 01:36:08;;;;;;;22.42;4.03;;;22.60;67.30;;;;;;5071081;28;20021;-57
2021/11/29 01:38:35;;;;;;;14.80;3.83;;;22.50;67.70;;;;;;5070919;28;20044;-52
2021/11/29 01:41:03;;;;;;;14.60;3.83;;;22.60;72.40;;;;;;5069868;28;20100;-57
2021/11/29 01:43:31;;;;;;;21.55;4.35;;;22.60;70.20;;;;;;5067778;28;20020;-56
2021/11/29 01:45:59;;;;;;;13.02;3.40;;;22.80;69.90;;;;;;5069325;28;20029;-56
2021/11/29 01:48:28;;;;;;;14.25;4.10;;;22.60;75.20;;;;;;5069891;28;20051;-60
2021/11/29 01:50:58;;;;;;;13.30;3.22;;;22.60;67.10;;;;;;5070715;28;20047;-58
2021/11/29 01:53:27;;;;;;;16.17;4.50;;;22.70;71.20;;;;;;5064077;28;20052;-60
2021/11/29 01:55:58;;;;;;;10.88;3.45;;;22.60;69.60;;;;;;5068436;28;20058;-54
2021/11/29 01:58:28;;;;;;;14.13;4.37;;;22.50;73.80;;;;;;5067486;28;20141;-53
2021/11/29 02:00:58;;;;;;;13.18;3.90;;;22.70;75.40;;;;;;5067121;28;20032;-56
2021/11/29 02:03:25;;;;;;;14.73;4.20;;;22.50;72.10;;;;;;5066681;28;20051;-53
2021/11/29 02:05:54;;;;;;;14.98;4.40;;;22.50;76.20;;;;;;5066009;28;20052;-51
2021/11/29 02:08:23;;;;;;;18.10;4.95;;;22.60;75.50;;;;;;5070408;28;20387;-54
2021/11/29 02:10:50;;;;;;;15.30;4.55;;;22.60;68.60;;;;;;5070488;28;20475;-59
2021/11/29 02:13:19;;;;;;;13.90;5.03;;;22.50;75.40;;;;;;5066485;28;20021;-57
2021/11/29 02:15:51;;;;;;;11.43;5.30;;;22.50;75.10;;;;;;5068424;28;20388;-61
2021/11/29 02:18:34;;;;;;;13.60;5.28;;;22.50;76.80;;;;;;5070608;28;20028;-56
2021/11/29 02:21:17;;;;;;;19.05;5.57;;;22.50;70.00;;;;;;5066659;28;20045;-56
2021/11/29 02:23:49;;;;;;;13.98;5.20;;;22.50;77.80;;;;;;5064904;28;20366;-52
2021/11/29 02:26:18;;;;;;;18.90;4.63;;;22.50;78.30;;;;;;5069930;28;20067;-59
2021/11/29 02:28:48;;;;;;;16.60;4.00;;;22.60;70.10;;;;;;5070356;28;20040;-61
2021/11/29 02:31:19;;;;;;;15.10;4.93;;;22.30;69.80;;;;;;5070116;28;20024;-57
2021/11/29 02:33:46;;;;;;;18.63;4.25;;;22.20;77.40;;;;;;5066154;28;20387;-59
2021/11/29 02:36:14;;;;;;;15.25;5.72;;;22.30;69.20;;;;;;5069991;28;20020;-56
2021/11/29 02:38:42;;;;;;;22.25;6.75;;;22.40;75.20;;;;;;5070300;28;20075;-59
2021/11/29 02:41:10;;;;;;;22.88;4.85;;;22.50;77.60;;;;;;5068838;28;20116;-57
2021/11/29 02:43:37;;;;;;;16.77;5.97;;;22.50;74.10;;;;;;5066458;28;20096;-60
2021/11/29 02:46:05;;;;;;;12.52;3.92;;;22.60;77.90;;;;;;5069770;28;20028;-57
2021/11/29 02:49:00;;;;;;;20.58;4.80;;;22.50;77.50;;;;;;5069714;28;20219;-58
2021/11/29 02:51:27;;;;;;;19.33;4.63;;;22.50;71.10;;;;;;5066327;28;20399;-52
2021/11/29 02:54:10;;;;;;;15.00;3.67;;;22.40;71.30;;;;;;5064971;28;20045;-54
2021/11/29 02:56:40;;;;;;;12.23;4.20;;;22.60;69.50;;;;;;5069773;28;20439;-60
2021/11/29 02:59:16;;;;;;;21.95;6.32;;;22.60;76.10;;;;;;5071073;28;20040;-56
2021/11/29 03:01:46;;;;;;;11.40;4.03;;;22.50;74.80;;;;;;5072456;28;20024;-57
2021/11/29 03:04:13;;;;;;;11.52;4.53;;;22.50;75.80;;;;;;5072215;28;20028;-55
2021/11/29 03:06:41;;;;;;;15.57;5.25;;;22.50;77.30;;;;;;5072301;28;20021;-60
2021/11/29 03:09:11;;;;;;;15.68;4.80;;;22.60;78.90;;;;;;5072314;28;20059;-55
2021/11/29 03:11:39;;;;;;;16.30;4.70;;;22.60;78.70;;;;;;5071151;28;20024;-56
2021/11/29 03:14:07;;;;;;;11.38;4.30;;;22.60;79.10;;;;;;5072478;28;20183;-57
2021/11/29 03:16:35;;;;;;;15.13;4.68;;;22.60;78.30;;;;;;5072256;28;20171;-54
2021/11/29 03:19:03;;;;;;;10.80;4.15;;;22.70;77.00;;;;;;5072607;28;20073;-57
2021/11/29 03:21:31;;;;;;;13.68;5.60;;;22.80;78.60;;;;;;5072229;28;20024;-58
2021/11/29 03:24:01;;;;;;;18.55;4.43;;;22.70;79.30;;;;;;5072310;28;20024;-52
2021/11/29 03:26:30;;;;;;;12.90;4.20;;;22.80;77.00;;;;;;5071534;28;20067;-59
2021/11/29 03:29:02;;;;;;;13.52;4.40;;;22.80;78.40;;;;;;5071045;28;20049;-59
2021/11/29 03:31:33;;;;;;;11.32;4.50;;;22.80;76.50;;;;;;5072483;28;20024;-56
2021/11/29 03:34:01;;;;;;;12.98;4.40;;;22.70;79.50;;;;;;5072054;28;20475;-53
2021/11/29 03:36:32;;;;;;;14.18;5.10;;;22.80;78.60;;;;;;5070632;28;20051;-58
2021/11/29 03:39:00;;;;;;;12.10;4.57;;;22.80;78.80;;;;;;5072167;28;20032;-57
2021/11/29 03:41:28;;;;;;;13.52;4.72;;;22.90;78.30;;;;;;5072244;28;20031;-56
2021/11/29 03:43:56;;;;;;;13.60;4.38;;;22.90;78.50;;;;;;5065854;28;20079;-60
2021/11/29 03:46:24;;;;;;;12.13;3.85;;;22.90;76.10;;;;;;5069379;28;20119;-54
2021/11/29 03:48:52;;;;;;;10.98;3.72;;;23.00;76.50;;;;;;5066898;28;20090;-56
2021/11/29 03:51:19;;;;;;;13.05;3.80;;;22.90;78.90;;;;;;5068336;28;20032;-52
2021/11/29 03:53:47;;;;;;;13.07;3.95;;;22.90;79.00;;;;;;5065785;28;20053;-58
2021/11/29 03:56:14;;;;;;;11.38;4.40;;;22.90;79.20;;;;;;5072409;28;20564;-55
2021/11/29 03:58:42;;;;;;;14.70;3.75;;;22.90;78.20;;;;;;5068256;28;20027;-57
2021/11/29 04:01:09;;;;;;;10.75;3.80;;;22.90;78.60;;;;;;5073212;28;20021;-54
2021/11/29 04:03:39;;;;;;;11.88;3.83;;;22.90;78.20;;;;;;5073045;28;20024;-56
2021/11/29 04:06:06;;;;;;;13.32;4.18;;;22.90;77.20;;;;;;5071730;28;20142;-57
2021/11/29 04:08:34;;;;;;;10.73;3.67;;;23.00;78.00;;;;;;5069116;28;20043;-55
2021/11/29 04:11:01;;;;;;;11.25;3.20;;;22.90;77.90;;;;;;5072744;28;20036;-54
2021/11/29 04:13:29;;;;;;;13.07;4.30;;;22.90;76.80;;;;;;5072825;28;20042;-57
2021/11/29 04:15:56;;;;;;;8.15;3.10;;;22.90;78.00;;;;;;5071456;28;20017;-54
2021/11/29 04:18:24;;;;;;;12.93;3.50;;;22.90;76.60;;;;;;5065405;28;20077;-56
2021/11/29 04:20:51;;;;;;;14.30;3.80;;;22.80;79.20;;;;;;5072440;28;20499;-61
2021/11/29 04:23:19;;;;;;;8.98;3.72;;;22.70;79.60;;;;;;5071712;28;20436;-57
2021/11/29 04:25:51;;;;;;;12.13;3.60;;;22.70;78.40;;;;;;5072294;28;20180;-56
2021/11/29 04:28:18;;;;;;;;;;;22.70;78.20;;;;;;5068072;28;20020;-57
2021/11/29 04:30:46;;;;;;;9.75;3.75;;;22.70;78.90;;;;;;5071488;28;19974;-52
2021/11/29 04:33:17;;;;;;;11.35;3.60;;;22.60;80.10;;;;;;5073195;28;20036;-54
2021/11/29 04:35:58;;;;;;;11.40;3.47;;;22.60;79.00;;;;;;5073084;28;20016;-56
2021/11/29 04:38:26;;;;;;;8.07;3.42;;;22.60;80.00;;;;;;5069770;28;20108;-60
2021/11/29 04:40:54;;;;;;;10.82;3.35;;;22.60;78.10;;;;;;5073435;28;20444;-56
2021/11/29 04:43:24;;;;;;;14.10;3.50;;;22.60;78.60;;;;;;5073380;28;20095;-57
2021/11/29 04:45:54;;;;;;;10.18;3.70;;;22.60;80.10;;;;;;5072365;28;20028;-57
2021/11/29 04:48:24;;;;;;;10.25;3.17;;;22.60;79.50;;;;;;5070060;28;20028;-57
2021/11/29 04:50:59;;;;;;;8.90;3.22;;;22.60;78.20;;;;;;5072641;28;20020;-54
2021/11/29 04:53:37;;;;;;;9.57;3.80;;;22.60;78.80;;;;;;5071986;28;20052;-56
2021/11/29 04:56:05;;;;;;;10.63;3.80;;;22.60;80.40;;;;;;5071867;28;20028;-54
2021/11/29 04:58:35;;;;;;;7.32;3.05;;;22.50;79.00;;;;;;5063425;28;20028;-53
2021/11/29 05:01:06;;;;;;;7.25;3.05;;;22.60;80.00;;;;;;5067550;28;20016;-52
2021/11/29 05:03:34;;;;;;;9.70;3.17;;;22.50;79.50;;;;;;5070534;28;20025;-62
2021/11/29 05:06:02;;;;;;;10.25;3.03;;;22.50;80.70;;;;;;5071080;28;20387;-56
2021/11/29 05:08:30;;;;;;;12.20;3.88;;;22.50;81.00;;;;;;5074208;28;20119;-53
2021/11/29 05:10:58;;;;;;;8.25;3.22;;;22.50;79.40;;;;;;5073926;28;20032;-54
2021/11/29 05:13:35;;;;;;;8.38;3.00;;;22.50;81.20;;;;;;5073160;28;20096;-54
2021/11/29 05:16:02;;;;;;;8.32;3.25;;;22.40;81.30;;;;;;5070703;28;20040;-55
2021/11/29 05:18:31;;;;;;;10.48;3.13;;;22.40;81.90;;;;;;5074573;28;20029;-52
2021/11/29 05:21:05;;;;;;;16.63;3.67;;;22.40;81.90;;;;;;5074246;28;20021;-52
2021/11/29 05:23:33;;;;;;;9.35;2.75;;;22.30;82.50;;;;;;5073653;28;20150;-58
2021/11/29 05:26:01;;;;;;;8.23;2.88;;;22.30;81.60;;;;;;5071675;28;20025;-55
2021/11/29 05:28:28;;;;;;;8.23;2.90;;;22.30;82.70;;;;;;5073529;28;20357;-56
2021/11/29 05:30:56;;;;;;;9.38;2.97;;;22.20;82.50;;;;;;5072788;28;20036;-56
2021/11/29 05:33:24;;;;;;;10.32;3.33;;;22.20;81.90;;;;;;5072353;28;20024;-56
2021/11/29 05:35:51;;;;;;;10.32;3.25;;;22.20;82.90;;;;;;5073256;28;20097;-58
2021/11/29 05:38:22;;;;;;;7.53;2.55;;;22.20;81.50;;;;;;5073977;28;20430;-53
2021/11/29 05:40:49;;;;;;;16.33;3.78;;;22.20;83.00;;;;;;5073293;28;20036;-56
2021/11/29 05:43:17;;;;;;;8.93;2.88;;;22.10;78.40;;;;;;5073301;28;20097;-58
2021/11/29 05:45:44;;;;;;;13.77;3.92;;;22.00;82.00;;;;;;5071834;28;20078;-60
2021/11/29 05:48:18;;;;;;;11.05;3.05;;;21.90;80.40;;;;;;5072765;28;20041;-59
2021/11/29 05:50:46;;;;;;;10.98;3.20;;;21.90;83.40;;;;;;5073279;28;20021;-59
2021/11/29 05:53:16;;;;;;;12.00;4.13;;;21.90;82.20;;;;;;5073335;28;20503;-61
2021/11/29 05:55:44;;;;;;;9.80;3.22;;;21.90;77.90;;;;;;5072999;28;20479;-57
2021/11/29 05:58:12;;;;;;;14.32;2.83;;;21.60;83.60;;;;;;5072861;28;20025;-59
2021/11/29 06:00:42;;;;;;;10.98;2.92;;;21.40;76.70;;;;;;5071760;28;20060;-55
2021/11/29 06:03:10;;;;;;;12.95;3.80;;;21.10;83.90;;;;;;5072903;28;20029;-53
2021/11/29 06:05:38;;;;;;;9.90;2.85;;;21.20;82.70;;;;;;5073245;28;20379;-56
2021/11/29 06:08:06;;;;;;;17.00;4.88;;;21.40;82.70;;;;;;5072465;28;20024;-56
2021/11/29 06:10:33;;;;;;;17.30;4.00;;;21.50;76.00;;;;;;5071747;28;20024;-59
2021/11/29 06:13:01;;;;;;;12.98;3.97;;;21.00;77.20;;;;;;5073217;28;20539;-56
2021/11/29 06:15:29;;;;;;;10.50;3.13;;;21.30;81.80;;;;;;5072963;28;20240;-60
2021/11/29 06:17:56;;;;;;;12.68;3.25;;;21.50;77.70;;;;;;5072250;28;20355;-58
2021/11/29 06:20:33;;;;;;;14.38;3.08;;;21.40;80.20;;;;;;5072723;28;20029;-56
2021/11/29 06:23:00;;;;;;;12.10;3.00;;;21.50;77.30;;;;;;5064306;28;20095;-59
2021/11/29 06:25:28;;;;;;;17.88;3.40;;;21.30;78.50;;;;;;5066039;28;20024;-56
2021/11/29 06:27:58;;;;;;;17.45;3.47;;;21.50;78.10;;;;;;5068430;28;20087;-57
2021/11/29 06:30:26;;;;;;;12.75;3.00;;;21.40;76.90;;;;;;5067497;28;20020;-56
2021/11/29 06:32:54;;;;;;;13.73;3.25;;;21.50;77.90;;;;;;5069579;28;20463;-59
2021/11/29 06:35:22;;;;;;;17.08;3.40;;;21.30;77.40;;;;;;5065876;28;20032;-57
2021/11/29 06:37:56;;;;;;;10.52;3.00;;;21.40;77.60;;;;;;5068525;28;20024;-53
2021/11/29 06:40:24;;;;;;;13.07;3.05;;;21.20;78.30;;;;;;5070303;28;20107;-58
2021/11/29 06:42:51;;;;;;;9.70;3.00;;;21.20;79.10;;;;;;5068540;28;20538;-61
2021/11/29 06:45:19;;;;;;;13.00;2.70;;;21.50;81.60;;;;;;5066369;28;20373;-59
2021/11/29 06:47:46;;;;;;;11.15;3.03;;;21.30;82.50;;;;;;5070063;28;20024;-58
2021/11/29 06:50:14;;;;;;;10.18;3.42;;;21.30;78.40;;;;;;5069155;28;20024;-59
2021/11/29 06:52:45;;;;;;;20.20;3.10;;;21.30;82.90;;;;;;5068875;28;20530;-59
2021/11/29 06:55:15;;;;;;;12.35;2.80;;;21.50;83.10;;;;;;5066114;28;20040;-59
2021/11/29 06:57:45;;;;;;;11.88;3.00;;;21.50;82.50;;;;;;5070061;28;20036;-59
2021/11/29 07:00:16;;;;;;;10.18;2.70;;;21.40;80.30;;;;;;5069153;28;20036;-54
2021/11/29 07:02:44;;;;;;;15.50;3.72;;;21.30;84.70;;;;;;5072080;28;20021;-60
2021/11/29 07:05:13;;;;;;;14.68;5.03;;;21.50;79.00;;;;;;5072333;28;20397;-59
2021/11/29 07:07:42;;;;;;;14.27;4.80;;;21.50;79.10;;;;;;5072140;28;20099;-62
2021/11/29 07:10:10;;;;;;;18.98;10.95;;;21.40;78.40;;;;;;5071914;28;20033;-58
2021/11/29 07:12:39;;;;;;;24.60;11.25;;;21.40;80.20;;;;;;5072339;28;20024;-59
2021/11/29 07:15:08;;;;;;;22.33;10.50;;;21.40;81.30;;;;;;5072250;28;20514;-59
2021/11/29 07:17:35;;;;;;;14.05;4.65;;;21.50;82.00;;;;;;5072649;28;20025;-59
2021/11/29 07:20:05;;;;;;;23.50;10.77;;;21.50;78.30;;;;;;5072056;28;20082;-56
2021/11/29 07:22:32;;;;;;;24.88;13.63;;;21.50;78.90;;;;;;5072300;28;20020;-61
2021/11/29 07:25:03;;;;;;;14.57;8.77;;;21.50;80.70;;;;;;5072133;28;20424;-59
2021/11/29 07:27:32;;;;;;;20.95;10.93;;;21.50;78.80;;;;;;5071846;28;20557;-60
2021/11/29 07:30:06;;;;;;;19.20;8.60;;;21.50;78.90;;;;;;5065558;28;20442;-64
2021/11/29 07:32:34;;;;;;;53.72;40.50;;;21.40;78.40;;;;;;5071524;28;20016;-61
2021/11/29 07:35:01;;;;;;;38.10;25.45;;;21.50;80.30;;;;;;5072884;28;20414;-61
2021/11/29 07:37:29;;;;;;;25.35;10.35;;;21.50;81.50;;;;;;5073024;28;20035;-61
2021/11/29 07:39:57;;;;;;;36.97;23.10;;;21.50;78.40;;;;;;5073154;28;20028;-60
2021/11/29 07:42:24;;;;;;;45.65;29.13;;;21.30;79.50;;;;;;5069780;28;20032;-59
2021/11/29 07:44:52;;;;;;;36.75;25.10;;;21.30;82.30;;;;;;5069852;28;20668;-57
2021/11/29 07:47:19;;;;;;;26.92;16.02;;;21.30;82.80;;;;;;5071513;28;20107;-60
2021/11/29 07:49:46;;;;;;;59.45;42.13;;;21.30;81.50;;;;;;5072848;28;20028;-59
2021/11/29 07:52:14;;;;;;;48.08;33.25;;;21.40;83.50;;;;;;5075308;28;20058;-60
2021/11/29 07:54:45;;;;;;;57.72;40.13;;;21.50;81.60;;;;;;5075562;28;20051;-61
2021/11/29 07:57:16;;;;;;;50.53;35.08;;;21.50;83.70;;;;;;5075301;28;20048;-62
2021/11/29 07:59:44;;;;;;;66.85;44.22;;;21.50;83.40;;;;;;5074557;28;20078;-59
2021/11/29 08:02:14;;;;;;;121.60;66.65;;;21.60;83.30;;;;;;5074089;28;20025;-62
2021/11/29 08:04:42;;;;;;;90.07;50.60;;;21.60;84.20;;;;;;5074364;28;20039;-56
2021/11/29 08:07:10;;;;;;;73.03;41.17;;;21.60;82.00;;;;;;5074538;28;20029;-63
2021/11/29 08:09:37;;;;;;;81.38;46.88;;;21.60;82.70;;;;;;5074122;28;20577;-65
2021/11/29 08:12:05;;;;;;;89.90;51.80;;;21.60;83.20;;;;;;5075044;28;20095;-64
2021/11/29 08:14:33;;;;;;;60.40;34.83;;;21.70;83.40;;;;;;5075179;28;20078;-67
2021/11/29 08:17:01;;;;;;;70.03;36.30;;;21.60;82.80;;;;;;5074263;28;20055;-65
2021/11/29 08:19:28;;;;;;;74.60;37.80;;;21.60;84.50;;;;;;5075198;28;20025;-66
2021/11/29 08:21:55;;;;;;;69.45;41.70;;;21.70;86.20;;;;;;5075401;28;20427;-65
2021/11/29 08:24:23;;;;;;;71.40;34.53;;;21.80;87.30;;;;;;5075254;28;20464;-61
2021/11/29 08:26:50;;;;;;;77.40;38.45;;;21.80;85.70;;;;;;5073923;28;20032;-64
2021/11/29 08:29:18;;;;;;;63.40;36.08;;;21.90;88.30;;;;;;5075097;28;20358;-66
2021/11/29 08:31:46;;;;;;;67.90;33.33;;;21.90;88.90;;;;;;5075368;28;20418;-65
2021/11/29 08:34:17;;;;;;;49.58;27.73;;;22.00;89.10;;;;;;5074642;28;20154;-63
2021/11/29 08:36:45;;;;;;;51.58;25.20;;;22.00;87.60;;;;;;5075029;28;20498;-64
2021/11/29 08:39:12;;;;;;;27.42;11.60;;;21.90;88.20;;;;;;5074598;28;20035;-61
2021/11/29 08:41:40;;;;;;;48.35;25.85;;;21.70;83.10;;;;;;5075162;28;20031;-63
2021/11/29 08:44:08;;;;;;;39.53;20.15;;;21.70;88.20;;;;;;5073453;28;20028;-65
2021/11/29 08:46:35;;;;;;;29.10;13.35;;;21.60;88.20;;;;;;5075073;28;20518;-64
2021/11/29 08:49:03;;;;;;;36.35;20.35;;;21.60;85.10;;;;;;5075004;28;20036;-66
2021/11/29 08:51:31;;;;;;;30.90;12.98;;;21.60;86.80;;;;;;5074713;28;20028;-59
2021/11/29 08:53:59;;;;;;;32.65;14.65;;;21.50;85.40;;;;;;5073042;28;20084;-60
2021/11/29 08:56:27;;;;;;;38.10;13.27;;;21.40;84.60;;;;;;5074814;28;20060;-63
2021/11/29 08:58:54;;;;;;;19.05;7.95;;;21.40;85.60;;;;;;5074860;28;20033;-68
2021/11/29 09:01:23;;;;;;;25.77;9.88;;;21.40;83.70;;;;;;5071584;28;20471;-62
2021/11/29 09:03:50;;;;;;;19.10;6.80;;;21.40;88.10;;;;;;5070109;28;20031;-61
2021/11/29 09:06:18;;;;;;;19.17;8.25;;;21.40;86.20;;;;;;5067853;28;20024;-61
2021/11/29 09:08:45;;;;;;;26.90;9.02;;;21.30;86.30;;;;;;5069529;28;20786;-57
2021/11/29 09:11:13;;;;;;;32.35;14.82;;;21.40;87.30;;;;;;5071413;28;20021;-60
2021/11/29 09:13:43;;;;;;;36.47;21.92;;;21.30;86.20;;;;;;5069306;28;20028;-66
2021/11/29 09:16:12;;;;;;;20.15;9.93;;;21.30;84.30;;;;;;5066093;28;20044;-64
2021/11/29 09:18:41;;;;;;;32.20;12.15;;;21.30;87.00;;;;;;5071004;28;20039;-61
2021/11/29 09:21:11;;;;;;;21.88;9.77;;;21.30;84.20;;;;;;5069220;28;20028;-57
2021/11/29 09:23:39;;;;;;;30.83;9.73;;;21.10;84.50;;;;;;5068881;28;20463;-55
2021/11/29 09:26:07;;;;;;;20.77;9.13;;;21.10;87.60;;;;;;5067739;28;20065;-56
2021/11/29 09:28:35;;;;;;;18.55;8.38;;;21.10;86.80;;;;;;5068620;28;20456;-59
2021/11/29 09:31:03;;;;;;;25.77;8.93;;;21.10;87.10;;;;;;5069009;28;20021;-59
2021/11/29 09:33:32;;;;;;;28.27;8.52;;;21.20;86.80;;;;;;5068854;28;20111;-59
2021/11/29 09:35:59;;;;;;;18.75;7.97;;;21.20;86.70;;;;;;5067352;28;20032;-60
2021/11/29 09:38:27;;;;;;;19.75;8.77;;;21.20;86.30;;;;;;5071187;28;20024;-60
2021/11/29 09:40:55;;;;;;;19.90;8.93;;;21.20;86.60;;;;;;5071441;28;20020;-61
2021/11/29 09:43:22;;;;;;;21.02;9.38;;;21.20;86.40;;;;;;5070398;28;20025;-59
2021/11/29 09:45:52;;;;;;;20.17;7.65;;;21.30;86.30;;;;;;5067716;28;20020;-54
2021/11/29 09:48:21;;;;;;;14.32;7.40;;;21.30;86.50;;;;;;5070870;28;20041;-60
2021/11/29 09:50:53;;;;;;;17.90;7.60;;;21.30;86.60;;;;;;5069451;28;20035;-56
2021/11/29 09:53:21;;;;;;;;;;;21.30;86.70;;;;;;5070930;28;20809;-56
2021/11/29 09:55:51;;;;;;;15.00;7.15;;;21.30;86.70;;;;;;5067290;28;19999;-56
2021/11/29 09:58:18;;;;;;;16.27;7.57;;;21.30;86.80;;;;;;5070174;28;20021;-58
2021/11/29 10:00:51;;;;;;;18.95;7.65;;;21.30;86.70;;;;;;5070737;28;20032;-55
2021/11/29 10:03:19;;;;;;;16.40;7.70;;;21.30;86.80;;;;;;5069353;28;20028;-60
2021/11/29 10:05:51;;;;;;;18.30;7.40;;;21.30;87.00;;;;;;5066609;28;20093;-56
2021/11/29 10:08:22;;;;;;;14.80;6.93;;;21.30;86.90;;;;;;5070673;28;20479;-54
2021/11/29 10:10:53;;;;;;;18.25;7.00;;;21.30;86.90;;;;;;5070397;28;20031;-58
2021/11/29 10:13:22;;;;;;;14.52;6.85;;;21.30;86.70;;;;;;5069604;28;20024;-58
2021/11/29 10:15:54;;;;;;;12.73;6.43;;;21.30;86.90;;;;;;5065716;28;20131;-61
2021/11/29 10:18:26;;;;;;;;;;;21.30;86.90;;;;;;5070951;28;20032;-63
2021/11/29 10:20:53;;;;;;;10.85;5.15;;;21.30;87.00;;;;;;5069921;28;19943;-59
2021/11/29 10:23:28;;;;;;;15.32;6.00;;;21.20;87.00;;;;;;5070378;28;20017;-59
2021/11/29 10:25:57;;;;;;;17.45;6.97;;;21.30;86.90;;;;;;5066669;28;20033;-60
2021/11/29 10:28:30;;;;;;;15.95;6.05;;;21.20;87.00;;;;;;5069526;28;20025;-54
2021/11/29 10:31:22;;;;;;;13.43;5.78;;;21.20;87.10;;;;;;5070515;28;20032;-56
2021/11/29 10:33:58;;;;;;;16.95;6.63;;;21.20;87.80;;;;;;5067460;28;20021;-56
2021/11/29 10:36:30;;;;;;;13.45;6.20;;;21.30;87.20;;;;;;5066893;28;20134;-54
2021/11/29 10:39:00;;;;;;;12.88;5.75;;;21.20;87.20;;;;;;5070295;28;20028;-61
2021/11/29 10:41:40;;;;;;;15.23;6.10;;;21.20;87.20;;;;;;5069851;28;20032;-60
2021/11/29 10:44:13;;;;;;;21.33;6.85;;;21.20;87.00;;;;;;5064602;28;20024;-58
2021/11/29 10:46:43;;;;;;;14.27;5.25;;;21.20;87.10;;;;;;5069525;28;20567;-55
2021/11/29 10:49:13;;;;;;;15.27;5.97;;;21.20;87.10;;;;;;5066771;28;20036;-56
2021/11/29 10:51:44;;;;;;;12.05;6.20;;;21.20;87.30;;;;;;5066591;28;20055;-56
2021/11/29 10:54:17;;;;;;;13.20;5.95;;;21.20;87.30;;;;;;5066741;28;20048;-55
2021/11/29 10:56:46;;;;;;;14.82;5.97;;;21.20;87.30;;;;;;5069711;28;20087;-62
2021/11/29 10:59:21;;;;;;;15.38;5.30;;;21.20;87.20;;;;;;5070361;28;20021;-60
2021/11/29 11:01:54;;;;;;;9.02;5.03;;;21.20;87.20;;;;;;5069264;28;20054;-60
2021/11/29 11:04:33;;;;;;;10.75;5.03;;;21.20;87.30;;;;;;5069518;28;21138;-54
2021/11/29 11:07:24;;;;;;;11.23;5.15;;;21.20;87.30;;;;;;5073663;28;20085;-60
2021/11/29 11:09:57;;;;;;;12.27;5.43;;;21.20;87.30;;;;;;5070366;28;20471;-56
2021/11/29 11:12:36;;;;;;;9.38;4.85;;;21.20;87.30;;;;;;5073159;28;20020;-55
2021/11/29 11:15:21;;;;;;;10.43;5.00;;;21.20;87.30;;;;;;5070395;28;20064;-59
2021/11/29 11:17:54;;;;;;;12.52;5.03;;;21.20;87.20;;;;;;5072226;28;20166;-54
2021/11/29 11:20:22;;;;;;;11.73;4.60;;;21.20;87.40;;;;;;5069143;28;20361;-58
2021/11/29 11:22:52;;;;;;;9.73;4.15;;;21.20;87.50;;;;;;5071887;28;20024;-55
2021/11/29 11:25:26;;;;;;;10.65;4.28;;;21.10;87.50;;;;;;5074256;28;20024;-55
2021/11/29 11:28:00;;;;;;;8.57;4.18;;;21.20;87.70;;;;;;5073198;28;20060;-55
2021/11/29 11:30:38;;;;;;;13.32;4.80;;;21.10;87.70;;;;;;5072855;28;20121;-52
2021/11/29 11:33:15;;;;;;;10.65;4.40;;;21.10;87.70;;;;;;5072023;28;20187;-55
2021/11/29 11:35:45;;;;;;;12.88;4.65;;;21.10;87.70;;;;;;5067517;28;20036;-57
2021/11/29 11:38:20;;;;;;;8.23;4.15;;;21.10;87.80;;;;;;5073746;28;20048;-58
2021/11/29 11:40:50;;;;;;;11.40;4.53;;;21.10;87.80;;;;;;5073447;28;20028;-58
2021/11/29 11:43:21;;;;;;;11.90;3.92;;;21.10;87.80;;;;;;5073656;28;20387;-59
2021/11/29 11:45:50;;;;;;;8.38;3.72;;;21.10;87.90;;;;;;5053055;28;20036;-60
2021/11/29 11:48:19;;;;;;;7.30;3.60;;;21.10;88.00;;;;;;5071775;28;20063;-54
2021/11/29 11:50:51;;;;;;;8.70;4.10;;;21.10;88.10;;;;;;5070461;28;20027;-55
2021/11/29 11:53:18;;;;;;;;;;;21.00;88.20;;;;;;5074314;28;20046;-57
2021/11/29 11:55:49;;;;;;;8.07;3.90;;;21.00;88.30;;;;;;5069379;28;20384;-58
2021/11/29 11:58:20;;;;;;;11.48;4.07;;;21.00;88.10;;;;;;5069230;28;20427;-56
2021/11/29 12:01:16;;;;;;;9.05;4.40;;;21.10;88.40;;;;;;5073779;28;20028;-59
2021/11/29 12:03:48;;;;;;;6.72;2.90;;;21.00;88.40;;;;;;5071289;28;20064;-54
2021/11/29 12:06:17;;;;;;;7.03;3.58;;;21.00;88.20;;;;;;5072363;28;20025;-56
2021/11/29 12:08:48;;;;;;;8.00;3.47;;;21.00;88.30;;;;;;5067553;28;20032;-55
2021/11/29 12:11:25;;;;;;;10.07;4.32;;;21.00;88.20;;;;;;5073082;28;20498;-55
2021/11/29 12:14:32;;;;;;;11.43;4.25;;;21.00;88.30;;;;;;5070521;28;20024;-58
2021/11/29 12:17:11;;;;;;;7.95;4.20;;;21.00;88.30;;;;;;5069129;28;20060;-56
2021/11/29 12:19:46;;;;;;;7.60;3.45;;;21.00;88.40;;;;;;5071310;28;20489;-57
2021/11/29 12:22:20;;;;;;;8.35;3.38;;;21.00;88.40;;;;;;5070674;28;20020;-54
2021/11/29 12:24:59;;;;;;;8.15;4.03;;;21.00;88.40;;;;;;5072502;28;20051;-53
2021/11/29 12:27:48;;;;;;;9.15;4.18;;;21.00;88.30;;;;;;5066354;28;20036;-56
2021/11/29 12:30:39;;;;;;;13.13;4.07;;;20.90;88.30;;;;;;5072587;28;20162;-56
2021/11/29 12:33:10;;;;;;;7.60;3.30;;;20.90;88.30;;;;;;5071816;28;20028;-55
2021/11/29 12:35:44;;;;;;;8.95;3.60;;;20.90;88.40;;;;;;5072832;28;20029;-58
2021/11/29 12:38:19;;;;;;;8.43;3.55;;;20.90;88.30;;;;;;5068507;28;20352;-59
2021/11/29 12:41:04;;;;;;;8.95;3.67;;;20.90;88.40;;;;;;5071901;28;20024;-54
2021/11/29 12:43:49;;;;;;;10.30;3.95;;;20.90;88.40;;;;;;5069244;28;20085;-56
2021/11/29 12:46:33;;;;;;;6.43;3.22;;;20.90;88.30;;;;;;5070624;28;20411;-57
2021/11/29 12:49:05;;;;;;;7.50;3.83;;;20.90;88.30;;;;;;5070349;28;20089;-59
2021/11/29 12:51:56;;;;;;;11.65;3.72;;;20.90;88.40;;;;;;5070466;28;20069;-56
2021/11/29 12:54:58;;;;;;;8.18;3.20;;;20.90;88.40;;;;;;5069723;28;20053;-60